createdAt,value
2022-10-31T00:00:22.158Z,29.28
2022-10-31T00:02:53.251Z,29.10
2022-10-31T00:05:33.574Z,28.88
2022-10-31T00:08:04.344Z,29.04
2022-10-31T00:10:35.274Z,28.98
2022-10-31T00:13:06.200Z,29.14
2022-10-31T00:15:39.633Z,29.10
2022-10-31T00:18:12.802Z,29.16
2022-10-31T00:20:47.969Z,29.20
2022-10-31T00:23:18.865Z,29.31
2022-10-31T00:25:49.847Z,29.34
2022-10-31T00:28:20.986Z,29.36
2022-10-31T00:30:53.967Z,29.35
2022-10-31T00:33:24.907Z,29.43
2022-10-31T00:35:56.079Z,29.45
2022-10-31T00:38:26.965Z,29.46
2022-10-31T00:40:58.104Z,29.51
2022-10-31T00:43:29.104Z,29.51
2022-10-31T00:46:00.062Z,29.50
2022-10-31T00:48:31.565Z,29.57
2022-10-31T00:51:02.836Z,29.46
2022-10-31T00:53:33.770Z,29.59
2022-10-31T00:56:04.814Z,29.49
2022-10-31T00:58:35.804Z,29.60
2022-10-31T01:01:07.086Z,29.57
2022-10-31T01:03:41.048Z,29.67
2022-10-31T01:06:16.842Z,29.66
2022-10-31T01:08:51.123Z,29.27
2022-10-31T01:11:25.074Z,29.62
2022-10-31T01:13:56.982Z,28.91
2022-10-31T01:16:29.924Z,29.33
2022-10-31T01:19:01.775Z,29.75
2022-10-31T01:21:33.727Z,29.74
2022-10-31T01:24:07.336Z,29.66
2022-10-31T01:26:44.261Z,29.73
2022-10-31T01:29:15.155Z,29.80
2022-10-31T01:31:45.953Z,29.80
2022-10-31T01:34:20.256Z,29.37
2022-10-31T01:36:56.662Z,29.79
2022-10-31T01:39:27.501Z,29.77
2022-10-31T01:41:58.639Z,29.80
2022-10-31T01:44:30.003Z,29.89
2022-10-31T01:47:25.992Z,29.91
2022-10-31T01:50:03.546Z,29.93
2022-10-31T01:52:41.723Z,29.95
2022-10-31T01:55:29.140Z,29.98
2022-10-31T01:58:07.462Z,29.57
2022-10-31T02:00:38.598Z,30.01
2022-10-31T02:03:09.457Z,30.02
2022-10-31T02:05:41.163Z,30.06
2022-10-31T02:08:17.728Z,30.06
2022-10-31T02:10:53.146Z,30.09
2022-10-31T02:15:59.686Z,30.09
2022-10-31T02:18:33.912Z,29.64
2022-10-31T02:21:18.252Z,30.18
2022-10-31T02:24:13.477Z,30.07
2022-10-31T02:27:13.597Z,30.17
2022-10-31T02:30:06.351Z,30.12
2022-10-31T02:32:36.733Z,29.84
2022-10-31T02:35:23.097Z,30.23
2022-10-31T02:38:24.582Z,30.16
2022-10-31T02:41:23.204Z,29.79
2022-10-31T02:44:10.303Z,30.14
2022-10-31T02:46:53.743Z,30.16
2022-10-31T02:49:37.152Z,29.94
2022-10-31T02:52:21.662Z,30.01
2022-10-31T02:54:52.964Z,30.45
2022-10-31T02:57:32.163Z,30.14
2022-10-31T03:00:09.478Z,30.40
2022-10-31T03:02:55.213Z,30.51
2022-10-31T03:06:11.370Z,30.06
2022-10-31T03:12:10.002Z,30.49
2022-10-31T03:14:50.193Z,30.18
2022-10-31T03:17:29.291Z,30.18
2022-10-31T03:20:04.256Z,30.62
2022-10-31T03:22:38.600Z,30.59
2022-10-31T03:25:11.919Z,30.20
2022-10-31T03:27:45.339Z,30.39
2022-10-31T03:30:19.493Z,30.66
2022-10-31T03:33:06.791Z,30.82
2022-10-31T03:35:39.524Z,30.39
2022-10-31T03:38:12.155Z,30.49
2022-10-31T03:40:46.347Z,30.76
2022-10-31T03:45:59.544Z,30.91
2022-10-31T03:48:32.167Z,30.94
2022-10-31T03:51:28.218Z,30.60
2022-10-31T03:54:38.284Z,30.91
2022-10-31T03:57:22.588Z,30.95
2022-10-31T04:00:06.804Z,30.54
2022-10-31T04:03:12.880Z,30.98
2022-10-31T04:05:52.119Z,30.67
2022-10-31T04:08:29.198Z,30.57
2022-10-31T04:11:02.832Z,31.08
2022-10-31T04:13:39.199Z,30.98
2022-10-31T04:16:19.660Z,31.05
2022-10-31T04:18:51.146Z,31.09
2022-10-31T04:21:22.110Z,31.12
2022-10-31T04:23:53.605Z,30.79
2022-10-31T04:26:28.981Z,31.05
2022-10-31T04:28:59.973Z,31.07
2022-10-31T04:31:32.115Z,31.16
2022-10-31T04:34:03.164Z,31.20
2022-10-31T04:36:34.325Z,31.19
2022-10-31T04:39:05.303Z,31.23
2022-10-31T04:41:43.945Z,31.27
2022-10-31T04:44:19.249Z,31.28
2022-10-31T04:46:54.296Z,31.30
2022-10-31T04:49:26.668Z,31.33
2022-10-31T04:51:57.609Z,31.35
2022-10-31T04:54:28.737Z,31.36
2022-10-31T04:57:17.895Z,31.38
2022-10-31T04:59:49.729Z,31.41
2022-10-31T05:02:20.745Z,31.41
2022-10-31T05:04:59.046Z,31.32
2022-10-31T05:07:29.889Z,31.46
2022-10-31T05:10:01.202Z,31.44
2022-10-31T05:12:33.637Z,31.51
2022-10-31T05:15:29.065Z,31.07
2022-10-31T05:18:18.289Z,31.54
2022-10-31T05:20:49.422Z,31.56
2022-10-31T05:23:35.781Z,31.52
2022-10-31T05:26:08.675Z,31.58
2022-10-31T05:28:39.621Z,31.51
2022-10-31T05:31:10.652Z,31.64
2022-10-31T05:33:42.032Z,31.65
2022-10-31T05:36:30.920Z,31.66
2022-10-31T05:39:03.885Z,31.69
2022-10-31T05:41:39.313Z,31.69
2022-10-31T05:44:19.289Z,31.74
2022-10-31T05:47:02.609Z,31.73
2022-10-31T05:50:07.201Z,31.77
2022-10-31T05:52:59.362Z,31.77
2022-10-31T05:55:35.955Z,31.80
2022-10-31T05:58:13.209Z,31.86
2022-10-31T06:00:49.601Z,31.86
2022-10-31T06:03:20.598Z,31.88
2022-10-31T06:05:55.394Z,31.89
2022-10-31T06:08:30.134Z,31.92
2022-10-31T06:11:04.855Z,31.94
2022-10-31T06:13:54.315Z,31.97
2022-10-31T06:16:34.892Z,31.99
2022-10-31T06:19:25.052Z,32.01
2022-10-31T06:21:55.903Z,32.03
2022-10-31T06:24:26.787Z,32.05
2022-10-31T06:26:57.690Z,32.11
2022-10-31T06:29:28.725Z,32.11
2022-10-31T06:32:14.993Z,32.05
2022-10-31T06:34:50.673Z,32.19
2022-10-31T06:37:21.611Z,32.22
2022-10-31T06:39:54.390Z,32.25
2022-10-31T06:42:25.515Z,32.24
2022-10-31T06:44:56.623Z,32.19
2022-10-31T06:48:16.160Z,32.23
2022-10-31T06:51:07.726Z,32.37
2022-10-31T06:53:39.033Z,32.30
2022-10-31T06:56:12.173Z,32.44
2022-10-31T06:58:49.387Z,32.51
2022-10-31T07:01:25.712Z,32.53
2022-10-31T07:03:56.782Z,32.55
2022-10-31T07:06:27.933Z,32.57
2022-10-31T07:08:58.982Z,32.60
2022-10-31T07:11:30.754Z,32.64
2022-10-31T07:14:02.829Z,32.55
2022-10-31T07:16:33.735Z,32.68
2022-10-31T07:19:06.664Z,32.72
2022-10-31T07:21:38.043Z,32.69
2022-10-31T07:24:09.217Z,32.78
2022-10-31T07:26:46.104Z,32.81
2022-10-31T07:29:18.296Z,32.86
2022-10-31T07:31:49.877Z,32.86
2022-10-31T07:34:26.324Z,32.91
2022-10-31T07:37:00.098Z,32.94
2022-10-31T07:39:30.968Z,32.97
2022-10-31T07:42:03.819Z,32.87
2022-10-31T07:44:36.032Z,33.04
2022-10-31T07:47:27.372Z,33.06
2022-10-31T07:50:21.652Z,32.75
2022-10-31T07:53:13.327Z,33.15
2022-10-31T07:55:47.247Z,33.16
2022-10-31T07:58:19.867Z,33.18
2022-10-31T08:00:51.896Z,33.21
2022-10-31T08:03:33.423Z,33.25
2022-10-31T08:06:22.482Z,33.27
2022-10-31T08:09:11.831Z,33.22
2022-10-31T08:11:42.967Z,33.08
2022-10-31T08:14:13.793Z,33.24
2022-10-31T08:16:44.780Z,33.40
2022-10-31T08:19:16.927Z,33.44
2022-10-31T08:21:47.855Z,33.46
2022-10-31T08:24:19.022Z,33.49
2022-10-31T08:26:50.298Z,33.53
2022-10-31T08:29:22.695Z,33.56
2022-10-31T08:31:53.742Z,33.57
2022-10-31T08:34:42.820Z,33.61
2022-10-31T08:37:42.488Z,33.63
2022-10-31T08:40:15.515Z,33.64
2022-10-31T08:42:46.639Z,33.68
2022-10-31T08:45:18.028Z,33.70
2022-10-31T08:47:48.931Z,33.72
2022-10-31T08:50:20.425Z,33.72
2022-10-31T08:53:04.710Z,33.76
2022-10-31T08:55:38.734Z,33.78
2022-10-31T08:58:23.819Z,33.72
2022-10-31T09:00:59.097Z,33.80
2022-10-31T09:03:32.989Z,33.84
2022-10-31T09:06:06.186Z,33.85
2022-10-31T09:08:37.687Z,33.86
2022-10-31T09:11:09.166Z,33.86
2022-10-31T09:14:13.040Z,33.84
2022-10-31T09:16:43.846Z,33.88
2022-10-31T09:19:22.061Z,33.91
2022-10-31T09:21:56.526Z,33.57
2022-10-31T09:24:27.415Z,33.93
2022-10-31T09:26:58.460Z,33.93
2022-10-31T09:29:32.209Z,33.94
2022-10-31T09:32:05.142Z,33.94
2022-10-31T09:34:41.680Z,33.96
2022-10-31T09:37:19.073Z,33.84
2022-10-31T09:39:50.006Z,33.97
2022-10-31T09:43:03.684Z,33.92
2022-10-31T09:45:55.154Z,33.87
2022-10-31T09:48:53.887Z,33.92
2022-10-31T09:51:41.775Z,33.94
2022-10-31T09:54:29.072Z,33.93
2022-10-31T09:57:02.676Z,33.94
2022-10-31T09:59:40.273Z,33.51
2022-10-31T10:02:36.314Z,33.94
2022-10-31T10:05:13.511Z,33.87
2022-10-31T10:08:02.285Z,33.90
2022-10-31T10:11:20.284Z,33.41
2022-10-31T10:14:16.549Z,33.83
2022-10-31T10:17:08.446Z,33.77
2022-10-31T10:19:57.184Z,33.84
2022-10-31T10:22:54.716Z,33.73
2022-10-31T10:25:30.672Z,33.81
2022-10-31T10:28:04.831Z,33.79
2022-10-31T10:31:04.673Z,33.32
2022-10-31T10:33:37.336Z,33.18
2022-10-31T10:36:19.421Z,33.03
2022-10-31T10:39:03.456Z,32.88
2022-10-31T10:41:36.191Z,32.88
2022-10-31T10:44:13.617Z,32.80
2022-10-31T10:47:08.156Z,32.74
2022-10-31T10:49:52.654Z,32.69
2022-10-31T10:52:50.780Z,32.57
2022-10-31T10:55:36.041Z,32.63
2022-10-31T10:58:10.598Z,32.66
2022-10-31T11:00:44.580Z,32.26
2022-10-31T11:03:17.295Z,32.26
2022-10-31T11:05:55.707Z,32.20
2022-10-31T11:08:46.569Z,32.49
2022-10-31T11:11:20.217Z,32.58
2022-10-31T11:13:54.949Z,32.03
2022-10-31T11:16:46.210Z,32.96
2022-10-31T11:19:22.226Z,33.06
2022-10-31T11:21:54.175Z,33.13
2022-10-31T11:24:30.801Z,33.19
2022-10-31T11:27:18.766Z,32.86
2022-10-31T11:29:50.036Z,33.24
2022-10-31T11:32:27.124Z,33.28
2022-10-31T11:35:02.123Z,33.29
2022-10-31T11:37:37.701Z,33.12
2022-10-31T11:40:10.073Z,33.31
2022-10-31T11:42:44.170Z,32.82
2022-10-31T11:45:21.857Z,32.97
2022-10-31T11:47:59.904Z,32.89
2022-10-31T11:50:36.576Z,32.52
2022-10-31T11:53:15.685Z,33.31
2022-10-31T11:55:48.613Z,33.21
2022-10-31T11:58:28.421Z,32.89
2022-10-31T12:01:00.750Z,33.27
2022-10-31T12:03:55.518Z,32.56
2022-10-31T12:06:50.440Z,32.74
2022-10-31T12:09:25.891Z,32.74
2022-10-31T12:12:25.812Z,32.59
2022-10-31T12:15:34.347Z,32.44
2022-10-31T12:18:11.724Z,32.43
2022-10-31T12:20:58.134Z,32.36
2022-10-31T12:24:02.622Z,32.14
2022-10-31T12:27:23.889Z,32.19
2022-10-31T12:30:19.724Z,31.39
2022-10-31T12:33:26.243Z,32.13
2022-10-31T12:36:24.829Z,31.27
2022-10-31T12:39:14.021Z,32.16
2022-10-31T12:41:47.918Z,32.14
2022-10-31T12:44:49.940Z,32.07
2022-10-31T12:47:29.667Z,31.88
2022-10-31T12:50:21.462Z,32.05
2022-10-31T12:53:13.396Z,32.04
2022-10-31T12:55:51.421Z,32.10
2022-10-31T12:58:43.421Z,31.64
2022-10-31T13:02:16.863Z,31.94
2022-10-31T13:04:56.042Z,32.10
2022-10-31T13:07:46.428Z,32.07
2022-10-31T13:10:17.216Z,32.05
2022-10-31T13:12:50.820Z,31.59
2022-10-31T13:15:37.956Z,31.73
2022-10-31T13:18:21.915Z,32.01
2022-10-31T13:20:55.729Z,31.66
2022-10-31T13:23:51.818Z,32.08
2022-10-31T13:26:34.755Z,32.09
2022-10-31T13:29:52.748Z,32.03
2022-10-31T13:32:51.506Z,31.79
2022-10-31T13:35:46.893Z,31.96
2022-10-31T13:38:25.723Z,31.91
2022-10-31T13:41:10.888Z,31.60
2022-10-31T13:44:02.465Z,31.67
2022-10-31T13:46:36.323Z,31.71
2022-10-31T13:49:24.613Z,31.69
2022-10-31T13:51:55.907Z,31.54
2022-10-31T13:54:45.135Z,31.31
2022-10-31T13:57:50.964Z,31.43
2022-10-31T14:00:43.144Z,31.45
2022-10-31T14:03:36.807Z,31.34
2022-10-31T14:06:15.390Z,31.36
2022-10-31T14:08:54.171Z,31.26
2022-10-31T14:11:34.411Z,30.83
2022-10-31T14:14:17.221Z,31.23
2022-10-31T14:16:55.698Z,31.20
2022-10-31T14:19:27.464Z,31.16
2022-10-31T14:21:58.477Z,31.22
2022-10-31T14:24:29.410Z,31.13
2022-10-31T14:27:05.121Z,30.56
2022-10-31T14:29:37.481Z,30.70
2022-10-31T14:32:21.208Z,30.72
2022-10-31T14:35:01.698Z,30.61
2022-10-31T14:37:42.116Z,30.99
2022-10-31T14:40:44.988Z,30.82
2022-10-31T14:43:33.851Z,30.63
2022-10-31T14:46:33.342Z,30.76
2022-10-31T14:49:10.124Z,30.83
2022-10-31T14:51:50.717Z,30.42
2022-10-31T14:54:51.345Z,30.27
2022-10-31T14:57:24.774Z,30.77
2022-10-31T15:00:06.699Z,30.70
2022-10-31T15:02:50.349Z,30.54
2022-10-31T15:05:21.806Z,30.67
2022-10-31T15:08:01.086Z,30.61
